Airfield :







YOU CAN JOIN US ON...

 
LOGIN :

Register | Disclaimer

   EN    FR    IT 

 









Legend :    VFR   Marginal VFR   IFR   Intensive IFR   Very Intensive IFR
Visi :
Ceiling :
>= 8 km
>= 3000ft
5 to 8 km
1000 to 3000 ft
1500m to 5 km
500 to 1000 ft
800 to 1500m
200 to 500 ft
< 800m
< 200 ft
Symbols :   Thunderstorms  Fog  Heavy snow  Heavy precipitations  Wind > 20 kt






- Airport Elevation : 39 ft
- IATA code : YNA


CYNA - Natashquan

CURRENT METAR :
  • 090700Z AUTO 03002KT 9SM OVC130 13/12 A3000 RMK SLP162

EXPIRED METARs :
  • 090600Z AUTO 00000KT 9SM OVC160 14/12 A2999 RMK SLP157
  • 090500Z AUTO 00000KT 9SM OVC160 14/12 A2999 RMK SLP159

TAF TAF CYNA
Valid from the 09 at 02:00 until the 09 at 14:00 UTC


090143Z 0902/0914 26008KT P6SM FEW060 SCT220
FM090300 VRB03KT P6SM FEW060 BKN210
FM090600 09007KT P6SM FEW060 BKN170
BECMG 0912/0914 09012KT RMK FCST BASED ON AUTO OBS. NXT FCST BY 090800Z
CZUL FIR / North America



MET'MAP, your aeronautical weather chart ! - Copyright ORBIFLY December 2007 - Disclaimer

ORBIFLY MET'MAP TEAM :

Programming & Development : Alexandra Zaïnal
Original concept : Baudouin d'Aumeries
Technical & hardware support : Manuel Goepfert
Assistance : Marc-Olivier Méhu




SOURCES & CREDITS :

   NOAA